Time;durP1;ratioP1;P1;durP2;ratioP2;P2;SDS_P1;SDS_P2;PMS_P1;PMS_P2;Temp;Humidity;BMP_temperature;BMP_pressure;BME280_temperature;BME280_humidity;BME280_pressure;Samples;Min_cycle;Max_cycle;Signal;HPM_P1;HPM_P2
2022/07/26 00:01:27;;;;;;;;;;;;;;;16.05;63.59;97050.48;110301;1247;59708;-72
2022/07/26 00:04:00;;;;;;;;;;;;;;;16.00;62.73;97050.84;110156;1247;59720;-72
2022/07/26 00:06:29;;;;;;;;;;;;;;;15.95;64.47;97050.11;110199;1247;71554;-71
2022/07/26 00:08:58;;;;;;;;;;;;;;;15.91;65.00;97048.66;110172;1247;69849;-73
2022/07/26 00:11:32;;;;;;;;;;;;;;;15.87;62.50;97050.41;110201;1247;69294;-71
2022/07/26 00:14:03;;;;;;;;;;;;;;;15.84;60.74;97047.42;110213;1247;59808;-73
2022/07/26 00:16:33;;;;;;;;;;;;;;;15.77;60.45;97047.17;110102;1247;59690;-71
2022/07/26 00:19:04;;;;;;;;;;;;;;;15.70;63.78;97044.02;110175;1247;70575;-71
2022/07/26 00:21:35;;;;;;;;;;;;;;;15.62;65.35;97040.21;110283;1247;67900;-71
2022/07/26 00:24:08;;;;;;;;;;;;;;;15.55;65.94;97037.38;110229;1247;69224;-70
2022/07/26 00:26:39;;;;;;;;;;;;;;;15.50;65.47;97038.73;110177;1247;59681;-72
2022/07/26 00:29:09;;;;;;;;;;;;;;;15.47;65.48;97040.33;110237;1247;59629;-71
2022/07/26 00:31:39;;;;;;;;;;;;;;;15.44;64.62;97039.25;110463;1247;70738;-72
2022/07/26 00:34:09;;;;;;;;;;;;;;;15.40;65.20;97035.77;110322;1247;68361;-70
2022/07/26 00:36:42;;;;;;;;;;;;;;;15.35;66.50;97035.88;110122;1247;69401;-70
2022/07/26 00:39:12;;;;;;;;;;;;;;;15.29;67.41;97034.14;110212;1247;59705;-70
2022/07/26 00:41:42;;;;;;;;;;;;;;;15.24;67.74;97033.11;110250;1247;59636;-71
2022/07/26 00:44:12;;;;;;;;;;;;;;;15.19;67.66;97032.00;110155;1247;70762;-71
2022/07/26 00:46:42;;;;;;;;;;;;;;;15.16;67.26;97031.61;110201;1247;67771;-70
2022/07/26 00:49:12;;;;;;;;;;;;;;;15.13;68.27;97030.44;110298;1247;69465;-72
2022/07/26 00:51:43;;;;;;;;;;;;;;;15.13;68.09;97029.45;110220;1247;59750;-70
2022/07/26 00:54:16;;;;;;;;;;;;;;;15.12;68.22;97028.31;110289;1247;59675;-72
2022/07/26 00:56:46;;;;;;;;;;;;;;;15.10;68.82;97024.99;110350;1247;71445;-70
2022/07/26 00:59:22;;;;;;;;;;;;;;;15.08;68.44;97024.59;110269;1247;68651;-70
2022/07/26 01:01:53;;;;;;;;;;;;;;;15.07;68.91;97023.50;110220;1247;69401;-70
2022/07/26 01:04:23;;;;;;;;;;;;;;;15.05;69.18;97025.41;110119;1247;59699;-70
2022/07/26 01:06:53;;;;;;;;;;;;;;;15.04;68.67;97016.45;110257;1247;59758;-70
2022/07/26 01:09:22;;;;;;;;;;;;;;;15.00;67.38;97014.54;110278;1247;70720;-71
2022/07/26 01:11:53;;;;;;;;;;;;;;;14.96;67.90;97014.53;110242;1247;68626;-70
2022/07/26 01:14:24;;;;;;;;;;;;;;;14.93;64.81;97010.67;109978;1247;69373;-70
2022/07/26 01:16:54;;;;;;;;;;;;;;;14.90;65.42;97013.05;110207;1247;59736;-71
2022/07/26 01:19:25;;;;;;;;;;;;;;;14.86;64.07;97007.80;110201;1247;59707;-70
2022/07/26 01:21:55;;;;;;;;;;;;;;;14.83;64.39;97010.63;110265;1245;70807;-70
2022/07/26 01:24:26;;;;;;;;;;;;;;;14.78;63.32;97006.14;110230;1247;68639;-70
2022/07/26 01:26:56;;;;;;;;;;;;;;;14.74;64.40;97003.73;110256;1247;69393;-71
2022/07/26 01:29:29;;;;;;;;;;;;;;;14.69;63.79;96999.23;110246;1245;59764;-71
2022/07/26 01:32:04;;;;;;;;;;;;;;;14.66;63.77;96997.81;110258;1247;59684;-71
2022/07/26 01:34:36;;;;;;;;;;;;;;;14.62;64.12;96997.98;110260;1247;70946;-72
2022/07/26 01:37:06;;;;;;;;;;;;;;;14.60;64.46;96999.10;110470;1247;67781;-71
2022/07/26 01:39:35;;;;;;;;;;;;;;;14.58;66.78;96996.27;110215;1245;69412;-71
2022/07/26 01:42:05;;;;;;;;;;;;;;;14.57;68.52;96992.00;110222;1247;59693;-72
2022/07/26 01:44:36;;;;;;;;;;;;;;;14.55;64.90;96990.42;110544;1244;59682;-71
2022/07/26 01:47:07;;;;;;;;;;;;;;;14.52;64.45;96990.36;110569;1244;71452;-71
2022/07/26 01:49:36;;;;;;;;;;;;;;;14.51;65.31;96994.54;110512;1245;68623;-72
2022/07/26 01:52:07;;;;;;;;;;;;;;;14.48;66.17;96996.86;110577;1244;69240;-72
2022/07/26 01:54:37;;;;;;;;;;;;;;;14.47;70.77;96995.36;110241;1246;59737;-72
2022/07/26 01:57:07;;;;;;;;;;;;;;;14.45;71.29;96992.21;110306;1246;59673;-71
2022/07/26 01:59:37;;;;;;;;;;;;;;;14.42;71.48;96990.90;110582;1245;71335;-71
2022/07/26 02:02:07;;;;;;;;;;;;;;;14.38;71.52;96996.75;110562;1245;68435;-70
2022/07/26 02:07:27;;;;;;;;;;;;;;;14.34;72.29;96992.80;110510;1244;59779;-70
2022/07/26 02:09:57;;;;;;;;;;;;;;;14.32;72.16;96992.49;110268;1247;59691;-71
2022/07/26 02:12:28;;;;;;;;;;;;;;;14.29;70.45;96988.75;110224;1247;71596;-71
2022/07/26 02:14:58;;;;;;;;;;;;;;;14.24;71.13;96987.35;110368;1245;68309;-70
2022/07/26 02:17:27;;;;;;;;;;;;;;;14.17;72.49;96988.55;110215;1247;69378;-71
2022/07/26 02:19:57;;;;;;;;;;;;;;;14.10;72.65;96990.69;110349;1244;59661;-70
2022/07/26 02:22:27;;;;;;;;;;;;;;;14.04;73.46;96987.89;110247;1247;59649;-71
2022/07/26 02:24:58;;;;;;;;;;;;;;;14.00;74.04;96989.09;110451;1245;71551;-71
2022/07/26 02:27:34;;;;;;;;;;;;;;;13.98;73.82;96992.61;110558;1244;68972;-71
2022/07/26 02:30:04;;;;;;;;;;;;;;;13.96;73.50;96989.48;110151;1246;69326;-72
2022/07/26 02:32:35;;;;;;;;;;;;;;;13.95;74.31;96988.74;110250;1246;59674;-71
2022/07/26 02:35:06;;;;;;;;;;;;;;;13.93;74.57;96989.04;110393;1244;59754;-71
2022/07/26 02:37:36;;;;;;;;;;;;;;;13.93;74.49;96990.50;110482;1244;71556;-71
2022/07/26 02:40:13;;;;;;;;;;;;;;;13.92;74.71;96989.54;110481;1244;67672;-71
2022/07/26 02:42:48;;;;;;;;;;;;;;;13.90;73.83;96994.27;110320;1245;68636;-70
2022/07/26 02:45:18;;;;;;;;;;;;;;;13.87;74.52;96999.09;110141;1247;59745;-70
2022/07/26 02:47:51;;;;;;;;;;;;;;;13.83;74.57;97000.38;110317;1244;59659;-70
2022/07/26 02:50:23;;;;;;;;;;;;;;;13.79;74.84;97001.07;110220;1247;69979;-70
2022/07/26 02:52:53;;;;;;;;;;;;;;;13.75;74.94;97004.06;110233;1247;67600;-72
2022/07/26 02:55:24;;;;;;;;;;;;;;;13.72;74.93;97003.30;110200;1245;69371;-72
2022/07/26 02:57:53;;;;;;;;;;;;;;;13.71;75.17;97006.14;110404;1246;59748;-70
2022/07/26 03:00:24;;;;;;;;;;;;;;;13.71;74.51;97003.93;110257;1247;59747;-71
2022/07/26 03:02:54;;;;;;;;;;;;;;;13.71;74.58;97003.40;110464;1244;71540;-71
2022/07/26 03:05:23;;;;;;;;;;;;;;;13.70;74.66;97001.75;110555;1244;68015;-72
2022/07/26 03:07:54;;;;;;;;;;;;;;;13.70;74.97;97001.30;110584;1244;68582;-72
2022/07/26 03:10:24;;;;;;;;;;;;;;;13.71;74.57;97006.36;110619;1244;59761;-72
2022/07/26 03:12:55;;;;;;;;;;;;;;;13.68;74.99;97001.71;110401;1247;60088;-70
2022/07/26 03:15:26;;;;;;;;;;;;;;;13.66;75.26;97008.91;110578;1244;70613;-72
2022/07/26 03:17:55;;;;;;;;;;;;;;;13.65;75.43;97009.66;110530;1244;68021;-70
2022/07/26 03:20:26;;;;;;;;;;;;;;;13.67;75.63;97007.39;110570;1244;68606;-72
2022/07/26 03:22:55;;;;;;;;;;;;;;;13.69;75.61;97002.64;110218;1247;59755;-72
2022/07/26 03:25:24;;;;;;;;;;;;;;;13.71;74.20;97005.96;110566;1245;59667;-70
2022/07/26 03:27:57;;;;;;;;;;;;;;;13.70;73.93;96999.76;110342;1244;71887;-70
2022/07/26 03:30:27;;;;;;;;;;;;;;;13.69;74.13;96996.36;110506;1244;68559;-70
2022/07/26 03:32:56;;;;;;;;;;;;;;;13.69;74.08;96993.63;110475;1245;69434;-71
2022/07/26 03:35:25;;;;;;;;;;;;;;;13.68;72.55;96995.95;110279;1247;59742;-71
2022/07/26 03:37:55;;;;;;;;;;;;;;;13.67;75.05;97000.77;110341;1244;59784;-71
2022/07/26 03:40:24;;;;;;;;;;;;;;;13.65;75.34;97000.27;110417;1245;70596;-71
2022/07/26 03:42:53;;;;;;;;;;;;;;;13.62;75.86;96994.89;110507;1244;68551;-70
2022/07/26 03:45:22;;;;;;;;;;;;;;;13.63;75.80;96995.50;110443;1244;68873;-70
2022/07/26 03:47:52;;;;;;;;;;;;;;;13.66;75.90;96991.36;110187;1247;60197;-72
2022/07/26 03:50:22;;;;;;;;;;;;;;;13.72;75.96;96990.63;110531;1245;59705;-72
2022/07/26 03:52:51;;;;;;;;;;;;;;;13.79;75.27;96986.72;110485;1245;71421;-71
2022/07/26 03:58:09;;;;;;;;;;;;;;;13.91;74.89;96986.08;110191;1245;69238;-71
2022/07/26 04:00:38;;;;;;;;;;;;;;;13.97;74.07;96987.41;110462;1244;59735;-71
2022/07/26 04:03:07;;;;;;;;;;;;;;;14.00;74.24;96988.21;110513;1244;59634;-73
2022/07/26 04:05:37;;;;;;;;;;;;;;;14.07;74.51;96987.22;110537;1245;70783;-72
2022/07/26 04:08:06;;;;;;;;;;;;;;;14.20;74.41;96985.52;110405;1245;68425;-70
2022/07/26 04:10:35;;;;;;;;;;;;;;;14.35;73.91;96985.84;110177;1247;67819;-71
2022/07/26 04:13:04;;;;;;;;;;;;;;;14.49;73.42;96986.06;110215;1247;60094;-70
2022/07/26 04:15:34;;;;;;;;;;;;;;;14.62;72.50;96985.27;110355;1245;59676;-70
2022/07/26 04:18:03;;;;;;;;;;;;;;;14.72;72.27;96983.16;110510;1244;70725;-71
2022/07/26 04:20:33;;;;;;;;;;;;;;;14.86;71.75;96983.63;110494;1244;68503;-72
2022/07/26 04:23:02;;;;;;;;;;;;;;;15.02;70.65;96984.84;110224;1244;69312;-70
2022/07/26 04:25:39;;;;;;;;;;;;;;;15.29;70.58;96982.20;110513;1244;59749;-70
2022/07/26 04:28:10;;;;;;;;;;;;;;;15.60;70.14;96983.02;110290;1244;59706;-69
2022/07/26 04:30:39;;;;;;;;;;;;;;;15.91;69.28;96980.04;110329;1245;70794;-70
2022/07/26 04:33:09;;;;;;;;;;;;;;;16.16;68.00;96976.27;110549;1244;68482;-69
2022/07/26 04:35:38;;;;;;;;;;;;;;;16.32;67.17;96979.20;110446;1244;69436;-70
2022/07/26 04:38:07;;;;;;;;;;;;;;;16.44;66.79;96975.86;110488;1244;59637;-69
2022/07/26 04:40:36;;;;;;;;;;;;;;;16.54;66.23;96970.29;110177;1247;59666;-71
2022/07/26 04:43:08;;;;;;;;;;;;;;;16.63;66.30;96970.95;110530;1244;71547;-69
2022/07/26 04:45:44;;;;;;;;;;;;;;;16.75;66.81;96971.61;110369;1244;67909;-69
2022/07/26 04:48:14;;;;;;;;;;;;;;;16.86;66.32;96971.64;110257;1247;69494;-70
2022/07/26 04:50:43;;;;;;;;;;;;;;;16.95;65.49;96976.02;110513;1244;59774;-71
2022/07/26 04:53:14;;;;;;;;;;;;;;;17.01;65.22;96973.06;110534;1245;60111;-70
2022/07/26 04:55:43;;;;;;;;;;;;;;;17.10;65.24;96970.05;110465;1244;71378;-70
2022/07/26 04:58:12;;;;;;;;;;;;;;;17.19;64.85;96967.45;110424;1244;66627;-70
2022/07/26 05:00:41;;;;;;;;;;;;;;;17.27;64.70;96968.41;110200;1247;69247;-70
2022/07/26 05:03:30;;;;;;;;;;;;;;;17.39;64.71;96971.58;110492;1244;59728;-72
2022/07/26 05:05:59;;;;;;;;;;;;;;;17.53;64.47;96974.36;110243;1244;59724;-70
2022/07/26 05:08:31;;;;;;;;;;;;;;;17.67;63.92;96973.70;110305;1246;71525;-70
2022/07/26 05:11:00;;;;;;;;;;;;;;;17.82;63.70;96973.61;110571;1244;68602;-70
2022/07/26 05:13:30;;;;;;;;;;;;;;;18.01;63.10;96973.23;110233;1247;69394;-72
2022/07/26 05:15:59;;;;;;;;;;;;;;;18.33;62.21;96973.09;110416;1244;59622;-70
2022/07/26 05:18:29;;;;;;;;;;;;;;;18.76;61.66;96973.13;110466;1244;59655;-71
2022/07/26 05:21:13;;;;;;;;;;;;;;;19.29;60.14;96971.56;110220;1247;71585;-70
2022/07/26 05:23:42;;;;;;;;;;;;;;;19.83;59.35;96970.45;110367;1244;68113;-69
2022/07/26 05:26:11;;;;;;;;;;;;;;;20.36;57.06;96966.77;110382;1244;69446;-71
2022/07/26 05:28:40;;;;;;;;;;;;;;;20.86;56.57;96970.66;110329;1244;59082;-73
2022/07/26 05:31:09;;;;;;;;;;;;;;;21.41;58.04;96970.11;110456;1244;59640;-69
2022/07/26 05:33:38;;;;;;;;;;;;;;;21.99;54.03;96970.10;110259;1245;71663;-70
2022/07/26 05:36:07;;;;;;;;;;;;;;;22.48;50.73;96975.56;110588;1244;67682;-71
2022/07/26 05:38:36;;;;;;;;;;;;;;;22.75;50.97;96973.77;110411;1244;68678;-71
2022/07/26 05:41:06;;;;;;;;;;;;;;;22.92;51.04;96976.06;110117;1246;59622;-70
2022/07/26 05:43:35;;;;;;;;;;;;;;;22.78;49.34;96974.95;110204;1247;59681;-71
2022/07/26 05:46:10;;;;;;;;;;;;;;;23.01;49.65;96974.13;110265;1246;71517;-70
2022/07/26 05:48:39;;;;;;;;;;;;;;;23.10;49.09;96973.46;110489;1244;68655;-69
2022/07/26 05:51:09;;;;;;;;;;;;;;;23.21;49.66;96970.20;110549;1244;67481;-70
2022/07/26 05:53:38;;;;;;;;;;;;;;;23.32;49.44;96973.14;110405;1244;59671;-69
2022/07/26 05:56:08;;;;;;;;;;;;;;;23.21;47.18;96974.17;110296;1247;59705;-70
2022/07/26 05:58:37;;;;;;;;;;;;;;;23.27;47.90;96973.82;110367;1244;71543;-70
2022/07/26 06:01:06;;;;;;;;;;;;;;;23.46;47.72;96973.48;110047;1248;67709;-72
2022/07/26 06:03:35;;;;;;;;;;;;;;;23.56;46.90;96976.16;110202;1246;69471;-70
2022/07/26 06:06:04;;;;;;;;;;;;;;;23.71;46.88;96976.54;110472;1243;59619;-69
2022/07/26 06:08:32;;;;;;;;;;;;;;;23.90;46.68;96974.55;110280;1244;59621;-70
2022/07/26 06:11:01;;;;;;;;;;;;;;;24.20;46.69;96973.91;110217;1244;71320;-70
2022/07/26 06:13:30;;;;;;;;;;;;;;;24.52;45.12;96971.20;110200;1247;67818;-71
2022/07/26 06:15:59;;;;;;;;;;;;;;;24.53;44.63;96975.59;110311;1245;69445;-74
2022/07/26 06:18:28;;;;;;;;;;;;;;;24.71;44.09;96978.28;110175;1244;59707;-69
2022/07/26 06:20:57;;;;;;;;;;;;;;;24.90;44.18;96976.98;110280;1246;59694;-70
